Time;durP1;ratioP1;P1;durP2;ratioP2;P2;SDS_P1;SDS_P2;PMS_P1;PMS_P2;Temp;Humidity;BMP_temperature;BMP_pressure;BME280_temperature;BME280_humidity;BME280_pressure;Samples;Min_cycle;Max_cycle;Signal;HPM_P1;HPM_P2
2021/01/28 00:02:05;;;;;;;75.50;37.70;;;7.50;90.30;;;;;;5113270;28;20421;-78
2021/01/28 00:04:31;;;;;;;69.60;35.40;;;7.50;90.20;;;;;;5093350;28;20032;-77
2021/01/28 00:06:56;;;;;;;77.80;38.50;;;7.40;90.20;;;;;;5094374;28;20036;-77
2021/01/28 00:09:22;;;;;;;79.33;38.27;;;7.40;90.30;;;;;;5093510;28;20043;-78
2021/01/28 00:11:47;;;;;;;76.77;36.97;;;7.50;90.30;;;;;;5078099;28;20028;-77
2021/01/28 00:14:13;;;;;;;74.70;35.23;;;7.50;90.30;;;;;;5094220;28;20050;-79
2021/01/28 00:16:39;;;;;;;79.47;37.60;;;7.60;90.30;;;;;;5093910;28;20082;-78
2021/01/28 00:19:04;;;;;;;73.90;36.27;;;7.50;90.20;;;;;;5079063;28;20114;-78
2021/01/28 00:21:30;;;;;;;67.33;33.53;;;7.50;90.20;;;;;;5078027;28;20024;-78
2021/01/28 00:23:55;;;;;;;68.97;34.37;;;7.50;90.30;;;;;;5062121;28;20031;-78
2021/01/28 00:26:21;;;;;;;71.17;32.47;;;7.50;90.20;;;;;;5075679;28;20396;-78
2021/01/28 00:28:47;;;;;;;66.20;32.27;;;7.50;90.20;;;;;;5090401;28;20039;-78
2021/01/28 00:31:13;;;;;;;63.40;31.33;;;7.40;90.20;;;;;;5072503;28;20024;-79
2021/01/28 00:33:38;;;;;;;71.60;33.37;;;7.40;90.20;;;;;;5066995;28;20034;-78
2021/01/28 00:36:06;;;;;;;72.33;31.57;;;7.40;90.30;;;;;;5073118;28;20536;-78
2021/01/28 00:38:33;;;;;;;69.00;31.57;;;7.40;90.20;;;;;;5089252;28;20039;-77
2021/01/28 00:41:00;;;;;;;70.17;30.80;;;7.40;90.20;;;;;;5091385;28;20023;-78
2021/01/28 00:43:26;;;;;;;63.87;30.37;;;7.30;90.10;;;;;;5055862;28;20039;-78
2021/01/28 00:45:52;;;;;;;72.13;31.40;;;7.30;90.20;;;;;;5072990;28;20048;-78
2021/01/28 00:48:19;;;;;;;68.93;33.33;;;7.30;90.20;;;;;;5089517;28;20028;-79
2021/01/28 00:50:46;;;;;;;67.13;33.07;;;7.30;90.30;;;;;;5090074;28;20024;-78
2021/01/28 00:53:13;;;;;;;63.23;28.87;;;7.30;90.30;;;;;;5073128;28;20442;-79
2021/01/28 00:55:39;;;;;;;73.13;32.70;;;7.30;90.20;;;;;;5089868;28;20058;-79
2021/01/28 00:58:05;;;;;;;64.47;30.90;;;7.30;90.20;;;;;;5089722;28;20038;-78
2021/01/28 01:00:35;;;;;;;70.83;31.73;;;7.40;90.30;;;;;;5072356;28;20036;-79
2021/01/28 01:03:00;;;;;;;65.67;30.00;;;7.30;90.20;;;;;;5089541;28;20048;-77
2021/01/28 01:05:30;;;;;;;64.67;30.73;;;7.20;90.20;;;;;;5072057;28;20492;-79
2021/01/28 01:07:56;;;;;;;61.17;30.87;;;7.30;90.20;;;;;;5090005;28;20024;-78
2021/01/28 01:10:35;;;;;;;58.93;30.17;;;7.30;90.30;;;;;;5090253;28;20115;-78
2021/01/28 01:13:01;;;;;;;58.97;29.03;;;7.30;90.30;;;;;;5090248;28;20110;-78
2021/01/28 01:15:27;;;;;;;56.90;30.03;;;7.30;90.20;;;;;;5072469;28;20036;-78
2021/01/28 01:17:53;;;;;;;55.23;28.53;;;7.30;90.30;;;;;;5093169;28;20052;-79
2021/01/28 01:20:23;;;;;;;70.17;31.50;;;7.30;90.30;;;;;;5111450;28;20489;-79
2021/01/28 01:22:48;;;;;;;58.37;29.13;;;7.30;90.20;;;;;;5092538;28;20391;-78
2021/01/28 01:25:16;;;;;;;58.13;27.70;;;7.30;90.20;;;;;;5076499;28;20032;-78
2021/01/28 01:27:42;;;;;;;55.93;28.13;;;7.20;90.20;;;;;;5092595;28;20032;-79
2021/01/28 01:30:08;;;;;;;57.20;28.47;;;7.30;90.30;;;;;;5093172;28;20096;-78
2021/01/28 01:32:34;;;;;;;54.20;27.50;;;7.30;90.30;;;;;;5092451;28;20024;-78
2021/01/28 01:35:00;;;;;;;57.07;27.70;;;7.30;90.20;;;;;;5092846;28;20024;-79
2021/01/28 01:37:26;;;;;;;52.67;27.03;;;7.20;90.20;;;;;;5110694;28;20036;-79
2021/01/28 01:39:51;;;;;;;50.57;27.73;;;7.10;90.10;;;;;;5110904;28;20039;-78
2021/01/28 01:42:18;;;;;;;54.83;27.67;;;7.10;90.50;;;;;;5092823;28;20024;-78
2021/01/28 01:44:44;;;;;;;56.03;27.13;;;7.10;90.30;;;;;;5092134;28;20118;-78
2021/01/28 01:47:45;;;;;;;53.40;28.53;;;7.10;90.30;;;;;;5092850;28;20072;-79
2021/01/28 01:50:42;;;;;;;53.20;28.00;;;7.00;90.30;;;;;;5111312;28;20035;-79
2021/01/28 01:53:26;;;;;;;50.33;25.50;;;7.00;90.40;;;;;;5101517;28;20124;-78
2021/01/28 01:56:09;;;;;;;52.40;26.08;;;7.10;90.40;;;;;;5072851;28;20032;-78
2021/01/28 01:58:38;;;;;;;53.97;26.38;;;7.10;90.40;;;;;;5070997;28;20111;-78
2021/01/28 02:01:04;;;;;;;49.37;25.87;;;7.10;90.40;;;;;;5090568;28;20028;-78
2021/01/28 02:03:33;;;;;;;60.93;27.17;;;7.10;90.30;;;;;;5091300;28;20070;-79
2021/01/28 02:06:27;;;;;;;54.47;28.30;;;7.10;90.30;;;;;;5110839;28;20035;-78
2021/01/28 02:08:54;;;;;;;53.20;26.80;;;7.00;90.30;;;;;;5092474;28;20039;-79
2021/01/28 02:11:20;;;;;;;58.70;26.30;;;7.00;90.40;;;;;;5092079;28;20102;-78
2021/01/28 02:13:49;;;;;;;77.37;29.73;;;7.00;90.50;;;;;;5109239;28;20758;-79
2021/01/28 02:16:17;;;;;;;57.17;26.87;;;7.00;90.50;;;;;;5091942;28;20510;-78
2021/01/28 02:18:44;;;;;;;56.33;26.63;;;6.90;90.40;;;;;;5091814;28;20129;-78
2021/01/28 02:21:24;;;;;;;54.50;27.10;;;6.90;90.60;;;;;;5111466;28;20038;-79
2021/01/28 02:23:56;;;;;;;58.13;28.30;;;6.90;90.60;;;;;;5112348;28;20115;-78
2021/01/28 02:26:22;;;;;;;68.70;30.87;;;7.00;90.60;;;;;;5114253;28;20040;-79
2021/01/28 02:28:47;;;;;;;113.60;34.70;;;6.90;90.50;;;;;;5078169;28;20023;-79
2021/01/28 02:31:13;;;;;;;69.50;30.43;;;6.80;90.50;;;;;;5113712;28;20380;-78
2021/01/28 02:33:53;;;;;;;97.37;35.13;;;6.70;90.50;;;;;;5094297;28;20325;-79
2021/01/28 02:36:26;;;;;;;76.67;32.77;;;6.60;90.70;;;;;;5092515;28;20039;-79
2021/01/28 02:38:52;;;;;;;77.90;31.83;;;6.50;90.80;;;;;;5095071;28;20035;-79
2021/01/28 02:41:17;;;;;;;68.90;30.93;;;6.50;90.90;;;;;;5078782;28;20484;-78
2021/01/28 02:43:43;;;;;;;92.83;33.30;;;6.50;91.00;;;;;;5094892;28;20080;-78
2021/01/28 02:46:12;;;;;;;86.93;31.30;;;6.50;91.00;;;;;;5096450;28;20130;-78
2021/01/28 02:48:38;;;;;;;100.97;32.83;;;6.40;91.00;;;;;;5113548;28;20023;-79
2021/01/28 02:51:09;;;;;;;152.60;37.17;;;6.40;91.10;;;;;;5113945;28;20463;-78
2021/01/28 02:53:40;;;;;;;84.00;33.10;;;6.30;91.20;;;;;;5113588;28;20059;-79
2021/01/28 02:56:06;;;;;;;84.43;33.57;;;6.30;91.30;;;;;;5083450;28;20031;-79
2021/01/28 02:58:32;;;;;;;131.80;37.50;;;6.30;91.30;;;;;;5113585;28;20510;-80
2021/01/28 03:00:58;;;;;;;91.50;34.00;;;6.30;91.40;;;;;;5095102;28;20032;-79
2021/01/28 03:03:24;;;;;;;107.83;34.77;;;6.30;91.50;;;;;;5113194;28;20050;-78
2021/01/28 03:05:51;;;;;;;77.80;33.43;;;6.30;91.50;;;;;;5094709;28;20028;-79
2021/01/28 03:08:18;;;;;;;78.07;32.27;;;6.30;91.50;;;;;;5113988;28;20038;-78
2021/01/28 03:10:44;;;;;;;86.73;33.93;;;6.40;91.50;;;;;;5112858;28;20023;-79
2021/01/28 03:13:10;;;;;;;105.00;35.50;;;6.40;91.40;;;;;;5077665;28;20034;-79
2021/01/28 03:15:36;;;;;;;88.00;34.30;;;6.40;91.40;;;;;;5093888;28;20038;-80
2021/01/28 03:18:03;;;;;;;80.30;32.10;;;6.40;91.40;;;;;;5112825;28;20052;-78
2021/01/28 03:20:28;;;;;;;80.43;32.30;;;6.50;91.40;;;;;;5095113;28;20036;-79
2021/01/28 03:22:57;;;;;;;95.17;35.03;;;6.50;91.40;;;;;;5094391;28;20030;-78
2021/01/28 03:25:23;;;;;;;85.47;32.73;;;6.50;91.30;;;;;;5079835;28;20118;-78
2021/01/28 03:27:49;;;;;;;66.50;30.03;;;6.50;91.30;;;;;;5095509;28;20020;-78
2021/01/28 03:30:22;;;;;;;71.50;30.13;;;6.50;91.40;;;;;;5078246;28;20126;-77
2021/01/28 03:32:48;;;;;;;;;;;6.50;91.30;;;;;;5094474;28;20020;-78
2021/01/28 03:35:15;;;;;;;60.13;28.37;;;6.50;91.30;;;;;;5111822;28;19920;-78
2021/01/28 03:37:40;;;;;;;64.73;29.60;;;6.60;91.30;;;;;;5093652;28;20031;-78
2021/01/28 03:40:06;;;;;;;54.07;26.37;;;6.60;91.30;;;;;;5094312;28;20383;-78
2021/01/28 03:42:32;;;;;;;62.67;30.17;;;6.60;91.20;;;;;;5094179;28;20103;-79
2021/01/28 03:44:58;;;;;;;58.27;28.33;;;6.60;91.20;;;;;;5076320;28;20686;-78
2021/01/28 03:47:25;;;;;;;52.50;27.43;;;6.60;91.20;;;;;;5094256;28;20031;-78
2021/01/28 03:49:51;;;;;;;66.47;29.03;;;6.70;91.30;;;;;;5111699;28;20114;-79
2021/01/28 03:52:16;;;;;;;87.67;33.87;;;6.70;91.30;;;;;;5077012;28;20127;-79
2021/01/28 03:54:42;;;;;;;69.17;32.57;;;6.70;91.10;;;;;;5111071;28;20055;-80
2021/01/28 03:57:08;;;;;;;67.83;31.83;;;6.60;91.00;;;;;;5093929;28;20031;-79
2021/01/28 03:59:33;;;;;;;87.53;34.10;;;6.60;91.10;;;;;;5077078;28;20110;-79
2021/01/28 04:01:59;;;;;;;59.63;29.57;;;6.50;91.10;;;;;;5076312;28;20179;-80
2021/01/28 04:04:25;;;;;;;83.43;33.60;;;6.50;91.20;;;;;;5076152;28;20042;-80
2021/01/28 04:06:50;;;;;;;75.37;34.17;;;6.50;91.30;;;;;;5075946;28;20130;-80
2021/01/28 04:09:17;;;;;;;63.83;32.07;;;6.50;91.50;;;;;;5093577;28;20034;-79
2021/01/28 04:11:43;;;;;;;57.07;29.70;;;6.50;91.40;;;;;;5112234;28;20019;-80
2021/01/28 04:14:08;;;;;;;49.63;29.43;;;6.50;91.40;;;;;;5060180;28;20032;-80
2021/01/28 04:16:34;;;;;;;47.17;26.80;;;6.50;91.40;;;;;;5093908;28;20062;-80
2021/01/28 04:18:59;;;;;;;50.17;28.63;;;6.50;91.40;;;;;;5093292;28;20034;-80
2021/01/28 04:21:25;;;;;;;49.93;29.00;;;6.40;91.30;;;;;;5093576;28;20426;-80
2021/01/28 04:23:51;;;;;;;49.70;28.20;;;6.40;91.40;;;;;;5075710;28;20057;-80
2021/01/28 04:26:16;;;;;;;46.93;26.70;;;6.40;91.50;;;;;;5060168;28;20038;-79
2021/01/28 04:28:42;;;;;;;38.90;24.43;;;6.40;91.50;;;;;;5112005;28;20076;-80
2021/01/28 04:31:08;;;;;;;36.30;23.50;;;6.40;91.60;;;;;;5076126;28;20027;-80
2021/01/28 04:33:35;;;;;;;36.60;23.63;;;6.40;91.60;;;;;;5093340;28;20031;-80
2021/01/28 04:36:01;;;;;;;35.00;23.00;;;6.30;91.60;;;;;;5092275;28;20083;-80
2021/01/28 04:38:27;;;;;;;34.90;22.43;;;6.30;91.70;;;;;;5093675;28;20036;-79
2021/01/28 04:41:04;;;;;;;29.23;20.70;;;6.40;91.70;;;;;;5110162;28;20039;-79
2021/01/28 04:43:32;;;;;;;27.97;19.63;;;6.40;91.70;;;;;;5093316;28;20016;-79
2021/01/28 04:46:02;;;;;;;32.73;21.97;;;6.40;91.70;;;;;;5092016;28;20044;-79
2021/01/28 04:48:29;;;;;;;28.23;18.77;;;6.40;91.70;;;;;;5093443;28;20039;-79
2021/01/28 04:50:57;;;;;;;25.57;17.60;;;6.30;91.70;;;;;;5092162;28;20043;-79
2021/01/28 04:53:31;;;;;;;23.97;17.70;;;6.30;91.70;;;;;;5092716;28;20486;-78
2021/01/28 04:56:01;;;;;;;33.10;20.10;;;6.20;91.80;;;;;;5092386;28;20040;-78
2021/01/28 04:58:26;;;;;;;21.00;16.07;;;6.30;91.90;;;;;;5093327;28;20028;-79
2021/01/28 05:00:52;;;;;;;25.07;17.50;;;6.20;91.90;;;;;;5074765;28;20030;-78
2021/01/28 05:03:22;;;;;;;28.57;19.27;;;6.30;92.00;;;;;;5093183;28;20031;-78
2021/01/28 05:05:51;;;;;;;23.30;16.23;;;6.30;91.90;;;;;;5111152;28;20031;-78
2021/01/28 05:08:17;;;;;;;28.87;17.53;;;6.20;91.90;;;;;;5111275;28;20076;-78
2021/01/28 05:10:51;;;;;;;19.10;14.13;;;6.20;92.00;;;;;;5092708;28;20023;-77
2021/01/28 05:13:30;;;;;;;22.03;16.00;;;6.30;92.10;;;;;;5092834;28;20036;-78
2021/01/28 05:16:00;;;;;;;22.33;16.47;;;6.30;92.00;;;;;;5110245;28;20391;-78
2021/01/28 05:18:28;;;;;;;23.87;16.37;;;6.30;92.10;;;;;;5092739;28;20065;-76
2021/01/28 05:21:17;;;;;;;23.63;16.53;;;6.30;92.10;;;;;;5109966;28;20027;-77
2021/01/28 05:23:43;;;;;;;25.60;17.20;;;6.30;92.10;;;;;;5111088;28;20108;-77
2021/01/28 05:26:29;;;;;;;27.10;18.93;;;6.20;92.10;;;;;;5074591;28;20023;-77
2021/01/28 05:29:10;;;;;;;29.30;19.87;;;6.30;92.20;;;;;;5091552;28;20028;-77
2021/01/28 05:31:36;;;;;;;33.60;21.40;;;6.20;92.20;;;;;;5110803;28;20554;-76
2021/01/28 05:34:07;;;;;;;33.20;21.97;;;6.20;92.20;;;;;;5109815;28;20149;-76
2021/01/28 05:36:33;;;;;;;31.13;20.53;;;6.20;92.30;;;;;;5092694;28;20387;-76
2021/01/28 05:39:19;;;;;;;39.00;24.13;;;6.20;92.50;;;;;;5091465;28;20023;-77
2021/01/28 05:41:49;;;;;;;40.70;24.97;;;6.20;92.40;;;;;;5092536;28;20137;-77
2021/01/28 05:44:30;;;;;;;37.23;22.47;;;6.20;92.40;;;;;;5109900;28;20028;-76
2021/01/28 05:46:58;;;;;;;30.40;21.70;;;6.10;92.40;;;;;;5091808;28;20393;-77
2021/01/28 05:49:24;;;;;;;66.37;26.70;;;6.10;92.50;;;;;;5092107;28;20035;-76
2021/01/28 05:51:51;;;;;;;38.47;24.10;;;6.10;92.50;;;;;;5075655;28;20183;-77
2021/01/28 05:54:22;;;;;;;43.17;27.30;;;6.10;92.50;;;;;;5092206;28;20032;-77
2021/01/28 05:56:59;;;;;;;37.03;25.03;;;6.10;92.60;;;;;;5110641;28;20024;-76
2021/01/28 05:59:52;;;;;;;38.93;23.70;;;6.10;92.60;;;;;;5095378;28;20409;-77
2021/01/28 06:02:37;;;;;;;44.47;27.52;;;6.10;92.70;;;;;;5095206;28;20038;-77
2021/01/28 06:05:10;;;;;;;42.83;26.60;;;6.10;92.70;;;;;;5092526;28;20061;-77
2021/01/28 06:07:41;;;;;;;;;;;6.00;92.70;;;;;;5114907;28;20020;-77
2021/01/28 06:10:29;;;;;;;46.50;28.57;;;6.00;92.70;;;;;;5094947;28;19958;-78
2021/01/28 06:13:09;;;;;;;46.07;26.73;;;6.00;92.80;;;;;;5093841;28;20039;-77
2021/01/28 06:15:44;;;;;;;38.83;24.53;;;6.00;92.90;;;;;;5094005;28;20044;-77
2021/01/28 06:18:25;;;;;;;34.93;22.30;;;6.00;92.90;;;;;;5081780;28;20052;-77
2021/01/28 06:21:12;;;;;;;31.30;19.37;;;5.90;93.00;;;;;;5095352;28;20077;-77
2021/01/28 06:23:49;;;;;;;30.20;19.30;;;6.00;93.00;;;;;;5114605;28;20023;-77
2021/01/28 06:26:27;;;;;;;24.23;16.73;;;6.00;93.00;;;;;;5095238;28;20338;-78
2021/01/28 06:29:01;;;;;;;43.57;18.30;;;6.00;93.10;;;;;;5096056;28;20019;-78
2021/01/28 06:31:35;;;;;;;26.90;16.87;;;6.00;93.10;;;;;;5095394;28;20118;-77
2021/01/28 06:34:14;;;;;;;21.63;14.57;;;5.90;93.10;;;;;;5112968;28;20490;-77
2021/01/28 06:36:56;;;;;;;21.77;14.23;;;5.90;93.20;;;;;;5096782;28;20399;-77
2021/01/28 06:39:32;;;;;;;28.40;15.60;;;6.00;93.30;;;;;;5094542;28;20039;-77
2021/01/28 06:42:12;;;;;;;21.20;13.90;;;6.00;93.30;;;;;;5113245;28;20034;-77
2021/01/28 06:44:53;;;;;;;24.10;13.90;;;6.00;93.30;;;;;;5095655;28;20066;-78
2021/01/28 06:47:26;;;;;;;21.20;13.93;;;6.00;93.30;;;;;;5113367;28;20054;-77
2021/01/28 06:50:10;;;;;;;23.05;13.60;;;6.00;93.30;;;;;;5095472;28;20034;-78
2021/01/28 06:53:11;;;;;;;18.73;13.00;;;6.00;93.30;;;;;;5095552;28;20038;-78
2021/01/28 06:55:59;;;;;;;20.00;13.07;;;5.90;93.30;;;;;;4995568;28;20073;-77
2021/01/28 06:58:49;;;;;;;19.10;12.03;;;6.00;93.40;;;;;;5088886;28;20040;-77
2021/01/28 07:01:24;;;;;;;17.23;11.77;;;5.90;93.40;;;;;;5094450;28;20077;-78
2021/01/28 07:04:08;;;;;;;15.97;11.33;;;6.00;93.40;;;;;;5113934;28;20043;-78
2021/01/28 07:06:48;;;;;;;17.23;12.17;;;6.00;93.50;;;;;;5113875;28;20032;-77
2021/01/28 07:09:27;;;;;;;17.67;11.33;;;6.00;93.40;;;;;;5112315;28;20471;-77
2021/01/28 07:11:56;;;;;;;14.87;10.27;;;5.90;93.40;;;;;;5113440;28;20031;-77
2021/01/28 07:14:22;;;;;;;16.63;10.27;;;5.90;93.50;;;;;;5112771;28;20042;-78
2021/01/28 07:17:17;;;;;;;17.03;10.70;;;5.90;93.50;;;;;;5091844;28;20056;-78
2021/01/28 07:19:51;;;;;;;16.17;9.73;;;5.80;93.50;;;;;;5092713;28;20035;-77
2021/01/28 07:22:41;;;;;;;14.07;9.17;;;5.70;93.50;;;;;;5091197;28;20475;-77
2021/01/28 07:25:30;;;;;;;14.27;8.70;;;5.70;93.60;;;;;;5090729;28;20031;-78
2021/01/28 07:28:03;;;;;;;15.87;9.90;;;5.80;93.70;;;;;;5091720;28;20066;-78
2021/01/28 07:30:33;;;;;;;;;;;5.80;93.70;;;;;;5091661;28;20035;-77
2021/01/28 07:32:59;;;;;;;16.37;9.27;;;5.80;93.70;;;;;;5092332;28;20368;-77
2021/01/28 07:35:24;;;;;;;14.00;8.80;;;5.70;93.70;;;;;;5091777;28;20134;-78
2021/01/28 07:37:54;;;;;;;12.57;7.83;;;5.70;93.70;;;;;;5092384;28;20602;-77
2021/01/28 07:40:57;;;;;;;11.40;7.87;;;5.70;93.80;;;;;;5090272;28;20548;-77
2021/01/28 07:43:27;;;;;;;12.15;7.60;;;5.70;93.80;;;;;;5092305;28;20016;-78
2021/01/28 07:46:28;;;;;;;10.07;6.93;;;5.70;93.80;;;;;;5091777;28;20032;-78
2021/01/28 07:49:12;;;;;;;18.13;7.23;;;5.70;93.80;;;;;;5091329;28;20085;-79
2021/01/28 07:51:40;;;;;;;10.33;7.37;;;5.70;93.80;;;;;;5091104;28;20043;-79
2021/01/28 07:54:29;;;;;;;11.70;7.63;;;5.80;94.10;;;;;;5091321;28;20095;-78
2021/01/28 07:56:58;;;;;;;10.13;7.00;;;5.70;93.80;;;;;;5078733;28;20040;-79
2021/01/28 07:59:41;;;;;;;9.00;6.47;;;5.70;93.80;;;;;;5091382;28;20032;-79
2021/01/28 08:02:34;;;;;;;11.68;7.90;;;5.70;93.90;;;;;;5072562;28;20028;-78
2021/01/28 08:05:11;;;;;;;12.73;8.82;;;5.70;93.90;;;;;;5088026;28;20028;-79
2021/01/28 08:07:46;;;;;;;12.63;8.90;;;5.70;93.90;;;;;;5086989;28;20024;-79
2021/01/28 08:10:29;;;;;;;13.87;9.07;;;5.60;93.90;;;;;;5071739;28;20123;-78
2021/01/28 08:13:02;;;;;;;13.57;8.38;;;5.50;93.90;;;;;;5071193;28;20361;-79
2021/01/28 08:15:30;;;;;;;13.18;9.30;;;5.50;93.90;;;;;;5073587;28;20044;-79
2021/01/28 08:18:21;;;;;;;13.93;9.53;;;5.50;93.90;;;;;;5084434;28;20044;-78
2021/01/28 08:20:48;;;;;;;14.77;9.23;;;5.50;94.00;;;;;;5070187;28;20067;-78
2021/01/28 08:23:24;;;;;;;14.67;9.03;;;5.50;94.00;;;;;;5067393;28;20085;-78
2021/01/28 08:25:57;;;;;;;15.23;9.77;;;5.40;94.00;;;;;;5085263;28;20028;-78
2021/01/28 08:28:25;;;;;;;14.88;9.93;;;5.50;94.10;;;;;;5078123;28;20059;-79
2021/01/28 08:31:05;;;;;;;16.67;9.93;;;5.50;94.10;;;;;;5095182;28;20027;-78
2021/01/28 08:33:31;;;;;;;15.43;9.40;;;5.50;94.10;;;;;;5093398;28;20032;-78
2021/01/28 08:36:01;;;;;;;15.03;9.67;;;5.50;94.10;;;;;;5095715;28;20032;-78
2021/01/28 08:38:28;;;;;;;16.67;10.57;;;5.50;94.10;;;;;;5092372;28;20027;-78
2021/01/28 08:40:58;;;;;;;18.47;11.57;;;5.50;94.10;;;;;;5087764;28;20157;-78
2021/01/28 08:43:24;;;;;;;21.23;13.27;;;5.50;94.10;;;;;;5090973;28;20020;-78
2021/01/28 08:46:03;;;;;;;18.53;11.97;;;5.50;94.10;;;;;;5091109;28;20135;-78
2021/01/28 08:48:28;;;;;;;16.73;11.50;;;5.50;94.10;;;;;;5083059;28;20153;-78
2021/01/28 08:51:15;;;;;;;15.57;11.70;;;5.50;94.10;;;;;;5072975;28;20032;-78
2021/01/28 08:53:46;;;;;;;16.40;11.43;;;5.50;94.20;;;;;;5081096;28;20051;-78
2021/01/28 08:56:21;;;;;;;16.57;11.90;;;5.50;94.20;;;;;;5089810;28;20036;-78
2021/01/28 08:58:48;;;;;;;17.20;12.30;;;5.40;94.20;;;;;;5084500;28;20021;-79
2021/01/28 09:01:14;;;;;;;14.87;11.30;;;5.40;94.20;;;;;;5065992;28;20085;-78
2021/01/28 09:03:51;;;;;;;13.77;10.97;;;5.40;94.20;;;;;;5087594;28;20020;-78
2021/01/28 09:06:17;;;;;;;17.77;13.97;;;5.40;94.20;;;;;;5089706;28;20032;-78
2021/01/28 09:08:43;;;;;;;19.37;14.37;;;5.40;94.20;;;;;;5068595;28;20042;-78
2021/01/28 09:11:25;;;;;;;16.17;12.07;;;5.40;94.20;;;;;;5087444;28;20024;-78
2021/01/28 09:14:15;;;;;;;14.23;10.73;;;5.40;94.30;;;;;;5088123;28;20020;-79
2021/01/28 09:16:51;;;;;;;11.90;10.00;;;5.40;94.20;;;;;;5086187;28;20308;-78
2021/01/28 09:19:20;;;;;;;13.80;11.30;;;5.30;94.20;;;;;;5089279;28;20021;-79
2021/01/28 09:21:51;;;;;;;14.40;11.63;;;5.30;94.30;;;;;;5087594;28;20024;-78
2021/01/28 09:24:22;;;;;;;14.93;11.50;;;5.30;94.30;;;;;;5088868;28;20048;-77
2021/01/28 09:27:03;;;;;;;14.43;11.23;;;5.30;94.30;;;;;;5089387;28;20024;-77
2021/01/28 09:29:36;;;;;;;17.27;12.87;;;5.30;94.30;;;;;;5090370;28;20024;-78
2021/01/28 09:32:14;;;;;;;31.83;20.33;;;5.40;94.30;;;;;;5092066;28;20050;-77
2021/01/28 09:34:40;;;;;;;19.83;14.83;;;5.40;94.30;;;;;;5092714;28;20047;-77
2021/01/28 09:37:18;;;;;;;18.40;15.17;;;5.30;94.30;;;;;;5093646;28;20032;-79
2021/01/28 09:39:52;;;;;;;20.87;14.03;;;5.30;94.30;;;;;;5093648;28;20031;-78
2021/01/28 09:42:25;;;;;;;15.53;12.23;;;5.30;94.30;;;;;;5093857;28;20467;-78
2021/01/28 09:44:52;;;;;;;13.57;11.27;;;5.30;94.30;;;;;;5094475;28;20665;-79
2021/01/28 09:47:26;;;;;;;18.50;14.07;;;5.30;94.30;;;;;;5076756;28;20324;-78
2021/01/28 09:49:57;;;;;;;15.30;11.77;;;5.40;94.40;;;;;;5076495;28;20024;-78
2021/01/28 09:52:29;;;;;;;16.10;13.17;;;5.40;94.30;;;;;;5093348;28;20051;-78
2021/01/28 09:54:58;;;;;;;14.50;12.18;;;5.40;94.30;;;;;;5093415;28;20460;-76
2021/01/28 09:57:25;;;;;;;15.17;12.10;;;5.40;94.40;;;;;;5094556;28;20032;-77
2021/01/28 09:59:51;;;;;;;14.30;11.80;;;5.40;94.40;;;;;;5092776;28;20032;-76
2021/01/28 10:02:22;;;;;;;15.83;12.10;;;5.40;94.30;;;;;;5091829;28;20456;-77
2021/01/28 10:04:49;;;;;;;15.47;12.70;;;5.40;94.40;;;;;;5093349;28;20028;-77
2021/01/28 10:07:15;;;;;;;13.20;11.67;;;5.40;94.40;;;;;;5093008;28;20074;-76
2021/01/28 10:09:43;;;;;;;13.57;11.23;;;5.50;94.40;;;;;;5093533;28;20510;-77
2021/01/28 10:12:09;;;;;;;11.50;10.30;;;5.50;94.40;;;;;;5089745;28;20403;-76
2021/01/28 10:14:35;;;;;;;13.23;10.93;;;5.50;94.40;;;;;;5092495;28;20047;-75
2021/01/28 10:17:00;;;;;;;12.23;10.77;;;5.50;94.40;;;;;;5091749;28;20517;-76
2021/01/28 10:19:26;;;;;;;12.40;10.97;;;5.60;94.40;;;;;;5096206;28;20032;-76
2021/01/28 10:21:52;;;;;;;12.63;11.30;;;5.50;94.30;;;;;;5095492;28;20031;-77
2021/01/28 10:24:18;;;;;;;12.20;10.93;;;5.60;94.40;;;;;;5078105;28;20126;-76
2021/01/28 10:26:44;;;;;;;11.37;10.17;;;5.60;94.40;;;;;;5090669;28;20493;-76
2021/01/28 10:29:09;;;;;;;11.63;10.27;;;5.60;94.40;;;;;;5095539;28;20106;-76
2021/01/28 10:31:35;;;;;;;11.73;10.23;;;5.60;94.40;;;;;;5112733;28;20111;-77
2021/01/28 10:34:01;;;;;;;13.20;10.57;;;5.60;94.40;;;;;;5076654;28;20059;-77
2021/01/28 10:36:26;;;;;;;14.50;11.40;;;5.60;94.60;;;;;;5078596;28;20027;-75
2021/01/28 10:38:52;;;;;;;12.77;11.23;;;5.60;94.40;;;;;;5111882;28;20712;-77
2021/01/28 10:41:18;;;;;;;14.27;11.83;;;5.60;94.40;;;;;;5076339;28;20103;-76
2021/01/28 10:43:44;;;;;;;12.57;11.17;;;5.60;94.50;;;;;;5111138;28;20030;-75
2021/01/28 10:46:10;;;;;;;14.13;11.17;;;5.60;94.40;;;;;;5094851;28;20035;-78
2021/01/28 10:48:35;;;;;;;12.60;10.97;;;5.70;94.40;;;;;;5092662;28;20651;-77
2021/01/28 10:51:03;;;;;;;11.00;9.80;;;5.70;94.40;;;;;;5089177;28;20051;-76
2021/01/28 10:53:28;;;;;;;12.97;10.87;;;5.70;94.40;;;;;;5100691;28;20031;-76
2021/01/28 10:55:54;;;;;;;11.83;10.00;;;5.70;94.40;;;;;;5080484;28;20036;-77
2021/01/28 10:58:26;;;;;;;12.70;10.67;;;5.80;94.50;;;;;;5112014;28;20040;-76
2021/01/28 11:00:52;;;;;;;13.00;10.73;;;5.80;94.40;;;;;;5078309;28;20035;-77
2021/01/28 11:03:17;;;;;;;14.97;12.10;;;5.80;94.50;;;;;;5113762;28;20026;-77
2021/01/28 11:05:44;;;;;;;24.13;16.20;;;5.80;94.40;;;;;;5094603;28;20032;-77
2021/01/28 11:08:09;;;;;;;24.57;18.07;;;5.90;94.50;;;;;;5094775;28;20035;-77
2021/01/28 11:10:37;;;;;;;20.60;16.43;;;5.90;94.50;;;;;;5077772;28;20148;-77
2021/01/28 11:13:03;;;;;;;22.70;17.00;;;5.90;94.40;;;;;;5095440;28;20020;-76
2021/01/28 11:15:33;;;;;;;19.93;15.07;;;5.90;94.40;;;;;;5113189;28;20066;-77
2021/01/28 11:18:00;;;;;;;18.47;15.90;;;5.90;94.40;;;;;;5112874;28;20165;-77
2021/01/28 11:20:25;;;;;;;18.07;14.10;;;5.90;94.40;;;;;;5094557;28;20032;-76
2021/01/28 11:22:51;;;;;;;17.13;14.27;;;5.90;94.40;;;;;;5077285;28;20042;-77
2021/01/28 11:25:20;;;;;;;15.33;13.07;;;5.90;94.40;;;;;;5112972;28;20054;-77
2021/01/28 11:27:48;;;;;;;15.40;12.63;;;6.00;94.40;;;;;;5093963;28;20057;-77
2021/01/28 11:30:15;;;;;;;15.27;12.70;;;5.90;94.30;;;;;;5112203;28;20027;-78
2021/01/28 11:32:42;;;;;;;19.93;16.03;;;5.90;94.40;;;;;;5093743;28;20024;-78
2021/01/28 11:35:08;;;;;;;17.60;15.10;;;6.00;94.40;;;;;;5077464;28;20119;-79
2021/01/28 11:37:34;;;;;;;13.50;11.70;;;6.10;94.50;;;;;;5113596;28;20115;-78
2021/01/28 11:40:00;;;;;;;14.20;11.37;;;6.10;94.40;;;;;;5112651;28;20351;-76
2021/01/28 11:42:25;;;;;;;12.97;10.97;;;6.00;94.30;;;;;;5094673;28;20111;-77
2021/01/28 11:44:51;;;;;;;12.70;11.40;;;6.00;94.30;;;;;;5093182;28;20031;-78
2021/01/28 11:47:16;;;;;;;11.43;10.17;;;6.10;94.40;;;;;;5094656;28;20116;-77
2021/01/28 11:49:43;;;;;;;13.63;11.23;;;6.10;94.30;;;;;;5076585;28;20126;-77
2021/01/28 11:52:08;;;;;;;13.93;10.90;;;6.10;94.30;;;;;;5077724;28;20073;-77
2021/01/28 11:54:35;;;;;;;14.07;11.87;;;6.20;94.40;;;;;;5092640;28;20027;-77
2021/01/28 11:57:00;;;;;;;12.77;11.03;;;6.30;94.40;;;;;;5110896;28;20593;-77
2021/01/28 11:59:26;;;;;;;11.03;9.87;;;6.30;94.40;;;;;;5094337;28;20023;-79
2021/01/28 12:01:52;;;;;;;14.67;11.33;;;6.20;94.20;;;;;;5076272;28;20088;-77
2021/01/28 12:04:17;;;;;;;13.13;11.40;;;6.20;94.30;;;;;;5111274;28;20024;-77
2021/01/28 12:06:43;;;;;;;12.40;10.60;;;6.30;94.30;;;;;;5076736;28;20475;-79
2021/01/28 12:09:09;;;;;;;10.50;9.40;;;6.40;94.30;;;;;;5093868;28;20152;-77
2021/01/28 12:11:35;;;;;;;10.47;9.10;;;6.40;94.30;;;;;;5076991;28;20080;-77
2021/01/28 12:14:01;;;;;;;10.27;8.80;;;6.40;94.30;;;;;;5059505;28;20023;-77
2021/01/28 12:16:28;;;;;;;7.83;7.03;;;6.40;94.30;;;;;;5094004;28;20036;-76
2021/01/28 12:18:53;;;;;;;8.10;7.30;;;6.40;94.30;;;;;;5093421;28;20136;-76
2021/01/28 12:21:19;;;;;;;7.37;6.57;;;6.40;94.20;;;;;;5093769;28;20530;-77
2021/01/28 12:23:44;;;;;;;7.90;7.10;;;6.40;94.30;;;;;;5111593;28;20024;-77
2021/01/28 12:26:11;;;;;;;7.07;6.37;;;6.50;94.30;;;;;;5077420;28;20039;-77
2021/01/28 12:28:37;;;;;;;6.50;5.60;;;6.50;94.30;;;;;;5094230;28;20043;-78
2021/01/28 12:31:03;;;;;;;6.53;5.93;;;6.50;94.20;;;;;;5076062;28;20036;-78
2021/01/28 12:33:28;;;;;;;6.63;5.93;;;6.50;94.20;;;;;;5077120;28;20023;-77
2021/01/28 12:35:54;;;;;;;6.57;5.83;;;6.50;94.20;;;;;;5091211;28;20042;-77
2021/01/28 12:38:19;;;;;;;6.50;5.90;;;6.50;94.20;;;;;;5076553;28;20080;-78
2021/01/28 12:40:45;;;;;;;8.17;6.13;;;6.60;94.20;;;;;;5092473;28;20026;-78
2021/01/28 12:43:14;;;;;;;6.30;5.37;;;6.60;94.10;;;;;;5111675;28;20024;-77
2021/01/28 12:45:39;;;;;;;5.67;5.17;;;6.50;94.00;;;;;;5060864;28;20469;-76
2021/01/28 12:48:05;;;;;;;5.73;5.23;;;6.40;94.00;;;;;;5075915;28;20491;-76
2021/01/28 12:50:31;;;;;;;5.70;5.00;;;6.50;94.10;;;;;;5111751;28;20106;-76
2021/01/28 12:52:57;;;;;;;3.87;3.57;;;6.70;94.20;;;;;;5098963;28;20115;-76
2021/01/28 12:55:23;;;;;;;5.03;4.47;;;6.70;94.00;;;;;;5084883;28;20058;-76
2021/01/28 12:57:49;;;;;;;5.97;4.33;;;6.50;93.90;;;;;;5093366;28;20035;-77